Time;durP1;ratioP1;P1;durP2;ratioP2;P2;SDS_P1;SDS_P2;PMS_P1;PMS_P2;Temp;Humidity;BMP_temperature;BMP_pressure;BME280_temperature;BME280_humidity;BME280_pressure;Samples;Min_cycle;Max_cycle;Signal;HPM_P1;HPM_P2
2021/11/10 00:01:24;;;;;;;;;;;;;;;12.46;80.34;102106.22;4997342;28;20109;-59
2021/11/10 00:04:09;;;;;;;5.05;2.65;;;;;;;12.45;80.56;102096.41;4995081;28;19914;-59
2021/11/10 00:06:54;;;;;;;6.38;3.35;;;;;;;12.45;80.31;102088.25;4993397;28;20041;-59
2021/11/10 00:09:39;;;;;;;7.88;3.42;;;;;;;12.46;80.43;102087.13;4992451;28;20045;-59
2021/11/10 00:12:24;;;;;;;;;;;;;;;12.47;80.26;102083.31;4995681;28;20407;-59
2021/11/10 00:15:10;;;;;;;5.17;2.70;;;;;;;12.46;80.11;102068.03;4998185;28;19913;-59
2021/11/10 00:17:55;;;;;;;6.78;3.30;;;;;;;12.47;80.18;102061.47;4985826;28;20074;-59
2021/11/10 00:20:40;;;;;;;6.35;2.80;;;;;;;12.48;80.23;102075.94;4994917;28;20049;-59
2021/11/10 00:23:25;;;;;;;5.10;2.53;;;;;;;12.48;80.05;102075.94;4993279;28;20057;-59
2021/11/10 00:26:10;;;;;;;3.60;2.55;;;;;;;12.46;80.01;102072.69;4995340;28;20050;-59
2021/11/10 00:28:55;;;;;;;6.07;2.67;;;;;;;12.46;79.93;102070.78;4994312;28;20061;-59
2021/11/10 00:31:40;;;;;;;5.50;2.85;;;;;;;12.47;80.02;102069.66;4979045;28;20046;-59
2021/11/10 00:34:25;;;;;;;4.90;2.58;;;;;;;12.47;79.81;102063.41;4990376;28;20533;-59
2021/11/10 00:37:10;;;;;;;;;;;;;;;12.47;79.80;102066.94;4992449;28;20049;-59
2021/11/10 00:39:55;;;;;;;4.78;2.72;;;;;;;12.47;79.98;102060.66;4984436;28;19914;-59
2021/11/10 00:42:40;;;;;;;4.00;2.60;;;;;;;12.46;79.74;102064.50;4978207;28;20057;-59
2021/11/10 00:45:24;;;;;;;5.95;2.70;;;;;;;12.47;79.58;102058.75;4961356;28;20109;-59
2021/11/10 00:48:13;;;;;;;5.95;3.20;;;;;;;12.47;79.61;102064.22;4988435;28;20045;-59
2021/11/10 00:50:58;;;;;;;7.57;3.05;;;;;;;12.47;79.60;102066.94;4976419;28;20053;-59
2021/11/10 00:53:43;;;;;;;4.95;3.20;;;;;;;12.46;79.72;102062.59;4994904;28;20053;-59
2021/11/10 00:56:27;;;;;;;4.13;2.05;;;;;;;12.48;79.76;102060.38;4992407;28;20050;-59
2021/11/10 00:59:12;;;;;;;;;;;;;;;12.49;79.49;102062.00;4984626;28;20053;-59
2021/11/10 01:01:58;;;;;;;4.88;2.25;;;;;;;12.48;79.57;102062.31;4972414;28;19913;-59
2021/11/10 01:04:43;;;;;;;3.75;2.03;;;;;;;12.47;79.53;102061.47;4994200;28;20064;-59
2021/11/10 01:07:28;;;;;;;4.45;2.53;;;;;;;12.49;79.70;102069.38;4982691;28;20514;-59
2021/11/10 01:10:13;;;;;;;;;;;;;;;12.49;79.31;102062.00;4992661;28;20515;-59
2021/11/10 01:12:59;;;;;;;5.10;2.40;;;;;;;12.48;79.47;102065.03;4959608;28;19914;-59
2021/11/10 01:15:45;;;;;;;3.83;2.60;;;;;;;12.48;79.15;102057.66;4962754;28;20408;-59
2021/11/10 01:18:30;;;;;;;4.72;2.50;;;;;;;12.47;79.21;102050.56;4971866;28;20042;-59
2021/11/10 01:21:21;;;;;;;6.20;2.70;;;;;;;12.48;79.29;102054.94;4971341;28;20061;-59
2021/11/10 01:24:06;;;;;;;4.05;2.00;;;;;;;12.49;79.34;102053.00;4982682;28;20057;-59
2021/11/10 01:26:54;;;;;;;4.15;2.30;;;;;;;12.48;79.27;102041.28;4978976;28;20514;-59
2021/11/10 01:29:40;;;;;;;3.28;2.20;;;;;;;12.47;79.30;102036.94;4978530;28;20082;-59
2021/11/10 01:32:25;;;;;;;3.35;2.30;;;;;;;12.47;79.22;102042.38;4964160;28;20049;-59
2021/11/10 01:35:12;;;;;;;5.10;2.70;;;;;;;12.46;79.14;102043.47;4965262;28;20053;-59
2021/11/10 01:37:57;;;;;;;6.60;2.65;;;;;;;12.45;79.17;102047.31;4982190;28;20061;-59
2021/11/10 01:40:45;;;;;;;4.93;2.17;;;;;;;12.45;79.24;102039.13;4984130;28;20057;-59
2021/11/10 01:43:32;;;;;;;7.80;4.93;;;;;;;12.43;78.83;102034.00;4982522;28;20053;-59
2021/11/10 01:46:18;;;;;;;4.63;2.30;;;;;;;12.43;78.65;102033.19;4976725;28;20050;-59
2021/11/10 01:49:02;;;;;;;7.53;1.90;;;;;;;12.43;78.87;102038.63;4984205;28;20045;-59
2021/11/10 01:51:50;;;;;;;3.60;2.13;;;;;;;12.46;78.97;102026.31;4984647;28;20411;-59
2021/11/10 01:54:39;;;;;;;5.60;2.72;;;;;;;12.45;78.79;102020.03;4983073;28;20126;-58
2021/11/10 01:57:27;;;;;;;4.40;2.60;;;;;;;12.46;78.84;102010.75;4986093;28;20057;-59
2021/11/10 02:00:13;;;;;;;2.22;1.83;;;;;;;12.46;78.81;102002.56;4980862;28;20050;-59
2021/11/10 02:03:05;;;;;;;6.18;2.35;;;;;;;12.47;79.02;102001.47;4995452;28;20676;-59
2021/11/10 02:06:05;;;;;;;4.30;2.30;;;;;;;12.47;78.97;101993.28;4999719;28;20057;-59
2021/11/10 02:09:16;;;;;;;4.10;2.03;;;;;;;12.47;78.79;101990.56;4987666;28;20542;-59
2021/11/10 02:12:02;;;;;;;2.13;1.45;;;;;;;12.47;78.75;101985.09;4982445;28;20046;-58
2021/11/10 02:14:52;;;;;;;6.43;2.67;;;;;;;12.48;78.82;101975.00;4972486;28;20045;-59
2021/11/10 02:17:37;;;;;;;7.05;2.38;;;;;;;12.46;78.83;101964.38;4981518;28;20054;-59
2021/11/10 02:20:29;;;;;;;4.43;2.42;;;;;;;12.47;78.80;101963.25;4984511;28;20080;-59
2021/11/10 02:23:14;;;;;;;7.05;2.78;;;;;;;12.48;78.81;101964.09;4984187;28;20046;-59
2021/11/10 02:26:02;;;;;;;5.70;2.10;;;;;;;12.47;78.71;101965.19;4968893;28;20046;-59
2021/11/10 02:28:47;;;;;;;7.22;2.17;;;;;;;12.48;78.70;101967.63;4992058;28;20118;-59
2021/11/10 02:31:34;;;;;;;5.22;2.53;;;;;;;12.48;78.72;101967.63;4978309;28;20049;-59
2021/11/10 02:34:20;;;;;;;3.83;1.92;;;;;;;12.48;78.68;101981.25;4977718;28;20054;-59
2021/11/10 02:37:05;;;;;;;3.28;2.25;;;;;;;12.48;78.64;101981.25;4975907;28;20058;-59
2021/11/10 02:39:51;;;;;;;6.65;2.80;;;;;;;12.49;78.53;101988.34;4973722;28;20053;-59
2021/11/10 02:42:36;;;;;;;3.78;1.90;;;;;;;12.48;78.43;101980.44;4981455;28;20061;-59
2021/11/10 02:45:22;;;;;;;2.92;1.73;;;;;;;12.49;78.33;101960.25;4978918;28;20054;-59
2021/11/10 02:48:09;;;;;;;4.38;2.55;;;;;;;12.49;78.46;101955.59;4993439;28;20053;-59
2021/11/10 02:50:54;;;;;;;3.58;2.28;;;;;;;12.48;78.42;101956.72;4980269;28;20068;-59
2021/11/10 02:53:39;;;;;;;3.50;1.67;;;;;;;12.49;78.25;101941.97;4985067;28;20069;-59
2021/11/10 02:56:24;;;;;;;;;;;;;;;12.49;78.24;101950.16;4975878;28;20526;-59
2021/11/10 02:59:08;;;;;;;2.95;2.28;;;;;;;12.49;78.26;101957.53;4976479;28;19914;-59
2021/11/10 03:01:54;;;;;;;3.72;2.13;;;;;;;12.49;78.14;101960.25;4977982;28;20063;-59
2021/11/10 03:04:45;;;;;;;3.33;1.88;;;;;;;12.49;78.15;101968.44;4982832;28;20066;-59
2021/11/10 03:07:32;;;;;;;3.03;1.92;;;;;;;12.47;78.21;101962.44;4981191;28;20089;-59
2021/11/10 03:10:20;;;;;;;3.22;1.92;;;;;;;12.45;78.25;101962.75;4984673;28;20053;-59
2021/11/10 03:13:05;;;;;;;2.92;1.95;;;;;;;12.45;78.18;101970.94;4981944;28;20439;-59
2021/11/10 03:15:50;;;;;;;4.38;2.08;;;;;;;12.44;78.44;101963.88;4980959;28;20077;-59
2021/11/10 03:18:35;;;;;;;4.55;1.65;;;;;;;12.42;78.01;101963.34;4984695;28;20045;-59
2021/11/10 03:21:20;;;;;;;3.10;1.90;;;;;;;12.42;78.26;101971.53;4998117;28;20065;-59
2021/11/10 03:24:05;;;;;;;;;;;;;;;12.41;78.22;101973.44;4986845;28;20065;-59
2021/11/10 03:26:51;;;;;;;2.83;1.35;;;;;;;12.41;78.33;101978.91;4981044;28;19913;-59
2021/11/10 03:29:36;;;;;;;3.28;1.80;;;;;;;12.42;77.98;101982.44;4994367;28;20064;-59
2021/11/10 03:32:25;;;;;;;2.53;1.77;;;;;;;12.40;78.17;101984.66;4980590;28;20053;-59
2021/11/10 03:35:13;;;;;;;4.05;2.10;;;;;;;12.40;78.16;101988.19;4981703;28;20050;-59
2021/11/10 03:37:59;;;;;;;4.13;2.10;;;;;;;12.38;78.18;101984.97;4972794;28;20049;-59
2021/11/10 03:40:46;;;;;;;3.42;2.00;;;;;;;12.40;78.18;101979.19;4980957;28;20064;-59
2021/11/10 03:43:35;;;;;;;4.03;2.20;;;;;;;12.40;78.30;101985.47;4983577;28;20053;-59
2021/11/10 03:46:23;;;;;;;2.85;1.98;;;;;;;12.41;78.07;101978.09;4986668;28;20052;-59
2021/11/10 03:49:10;;;;;;;4.88;2.72;;;;;;;12.41;78.15;101980.81;4980642;28;20053;-59
2021/11/10 03:51:55;;;;;;;3.60;2.30;;;;;;;12.38;77.95;101971.31;4979184;28;20399;-59
2021/11/10 03:54:45;;;;;;;3.85;1.63;;;;;;;12.39;77.78;101972.13;4979900;28;20053;-59
2021/11/10 03:57:31;;;;;;;3.97;2.13;;;;;;;12.38;77.84;101976.78;4973870;28;20065;-59
2021/11/10 04:00:17;;;;;;;2.67;1.80;;;;;;;12.38;77.86;101981.41;4964850;28;20066;-59
2021/11/10 04:03:01;;;;;;;2.65;1.70;;;;;;;12.37;77.94;101980.59;4974380;28;20046;-59
2021/11/10 04:05:52;;;;;;;2.70;1.63;;;;;;;12.36;78.00;101980.91;4979196;28;20045;-59
2021/11/10 04:08:38;;;;;;;2.45;1.73;;;;;;;12.36;78.16;101989.06;4984022;28;20435;-59
2021/11/10 04:11:24;;;;;;;3.60;2.55;;;;;;;12.37;77.97;101985.25;4991468;28;20064;-59
2021/11/10 04:14:09;;;;;;;2.20;1.52;;;;;;;12.37;77.71;101977.06;4979663;28;20061;-59
2021/11/10 04:16:57;;;;;;;4.15;1.67;;;;;;;12.36;78.06;101978.16;4979035;28;20053;-59
2021/11/10 04:19:42;;;;;;;3.80;1.73;;;;;;;12.37;77.97;101985.25;4982122;28;20046;-59
2021/11/10 04:22:26;;;;;;;1.65;0.98;;;;;;;12.35;77.79;101991.00;4974104;28;20245;-59
2021/11/10 04:25:11;;;;;;;;;;;;;;;12.35;77.82;101987.44;4972808;28;20412;-59
2021/11/10 04:27:56;;;;;;;2.85;1.80;;;;;;;12.34;78.03;101988.56;4979551;28;20383;-59
2021/11/10 04:30:49;;;;;;;3.03;1.75;;;;;;;12.35;77.83;101991.00;4980136;28;20049;-59
2021/11/10 04:33:36;;;;;;;4.28;2.08;;;;;;;12.34;77.81;101994.81;4983473;28;20053;-59
2021/11/10 04:36:25;;;;;;;4.40;1.85;;;;;;;12.35;77.88;101992.91;4980198;28;20146;-59
2021/11/10 04:39:14;;;;;;;3.97;2.05;;;;;;;12.34;77.82;101996.75;4964811;28;20044;-59
2021/11/10 04:41:59;;;;;;;2.05;1.55;;;;;;;12.33;77.84;102001.41;4983389;28;20049;-59
2021/11/10 04:44:49;;;;;;;2.70;1.60;;;;;;;12.33;77.73;102001.41;4974775;28;20054;-59
2021/11/10 04:47:36;;;;;;;3.38;1.67;;;;;;;12.35;77.97;102003.81;4977171;28;20042;-59
2021/11/10 04:50:21;;;;;;;2.25;1.55;;;;;;;12.33;77.91;101995.94;4978082;28;20058;-59
2021/11/10 04:53:06;;;;;;;;;;;;;;;12.34;77.75;101992.09;4988451;28;20046;-59
2021/11/10 04:55:51;;;;;;;3.90;1.48;;;;;;;12.33;77.71;101990.50;4977772;28;19913;-59
2021/11/10 04:58:38;;;;;;;2.42;1.67;;;;;;;12.34;77.61;101980.41;4976788;28;20519;-59
2021/11/10 05:01:26;;;;;;;3.05;1.98;;;;;;;12.34;77.68;101980.41;4961909;28;20053;-59
2021/11/10 05:04:15;;;;;;;2.10;1.42;;;;;;;12.33;77.62;101967.84;4959560;28;20054;-59
2021/11/10 05:07:04;;;;;;;3.38;2.10;;;;;;;12.34;77.62;101964.03;4970703;28;20045;-59
2021/11/10 05:09:51;;;;;;;2.42;1.55;;;;;;;12.32;77.60;101958.06;4969664;28;20049;-59
2021/11/10 05:12:36;;;;;;;2.30;1.63;;;;;;;12.33;77.53;101951.50;4977456;28;20061;-59
2021/11/10 05:15:21;;;;;;;2.22;1.35;;;;;;;12.34;77.45;101953.13;4979386;28;20663;-59
2021/11/10 05:18:07;;;;;;;3.03;1.60;;;;;;;12.34;77.64;101948.44;4975066;28;20054;-59
2021/11/10 05:20:51;;;;;;;;;;;;;;;12.34;77.47;101955.84;4974249;28;20053;-59
2021/11/10 05:23:36;;;;;;;5.13;1.77;;;;;;;12.31;77.69;101957.22;4973364;28;19914;-59
2021/11/10 05:26:21;;;;;;;4.68;2.40;;;;;;;12.31;76.90;101951.78;4987486;28;20053;-59
2021/11/10 05:29:08;;;;;;;2.28;1.70;;;;;;;12.31;76.88;101956.44;4992338;28;20045;-59
2021/11/10 05:31:53;;;;;;;4.72;1.85;;;;;;;12.30;77.22;101950.16;4980799;28;20423;-59
2021/11/10 05:34:38;;;;;;;5.82;1.67;;;;;;;12.30;77.14;101952.06;4986949;28;20101;-59
2021/11/10 05:37:23;;;;;;;4.00;2.38;;;;;;;12.31;77.37;101961.88;4985999;28;20053;-59
2021/11/10 05:40:08;;;;;;;;;;;;;;;12.31;77.40;101964.59;4989565;28;20049;-59
2021/11/10 05:42:53;;;;;;;2.83;1.50;;;;;;;12.30;77.16;101966.53;4995842;28;19913;-59
2021/11/10 05:45:37;;;;;;;6.35;1.35;;;;;;;12.31;77.35;101967.34;4987168;28;20065;-59
2021/11/10 05:48:22;;;;;;;;;;;;;;;12.33;77.45;101970.59;4978864;28;20049;-59
2021/11/10 05:51:07;;;;;;;5.38;2.40;;;;;;;12.30;77.25;101979.34;5007147;23;20397;-81
2021/11/10 05:53:53;;;;;;;;;;;;;;;12.30;77.37;101973.88;4975650;28;20053;-80
2021/11/10 05:56:41;;;;;;;7.07;1.67;;;;;;;12.29;77.48;101983.97;4969133;28;19914;-81
2021/11/10 05:59:26;;;;;;;4.00;2.20;;;;;;;12.28;77.38;101974.22;4975705;28;20166;-82
2021/11/10 06:02:12;;;;;;;2.80;1.45;;;;;;;12.30;77.50;101973.88;4970536;28;20058;-80
2021/11/10 06:04:57;;;;;;;3.92;2.10;;;;;;;12.28;77.71;101962.47;4952859;28;20074;-79
2021/11/10 06:07:44;;;;;;;2.78;1.42;;;;;;;12.28;77.36;101957.03;4978395;28;20062;-79
2021/11/10 06:10:29;;;;;;;8.35;2.03;;;;;;;12.27;77.66;101958.13;4955909;28;20055;-80
2021/11/10 06:13:14;;;;;;;;;;;;;;;12.28;77.50;101970.66;4975013;28;20045;-81
2021/11/10 06:15:59;;;;;;;7.40;2.10;;;;;;;12.24;77.10;101966.91;4961697;28;20392;-80
2021/11/10 06:18:45;;;;;;;;;;;;;;;12.26;77.67;101967.41;4987694;28;20046;-82
2021/11/10 06:21:30;;;;;;;4.57;1.35;;;;;;;12.23;78.01;101971.56;4989357;28;19914;-82
2021/11/10 06:24:20;;;;;;;;;;;;;;;12.10;72.00;101963.28;4977060;28;20057;-80
2021/11/10 06:27:04;;;;;;;7.50;3.03;;;;;;;11.90;68.43;101962.47;4950445;28;19914;-81
2021/11/10 06:29:49;;;;;;;7.07;2.00;;;;;;;11.87;65.57;101970.44;4972184;28;20050;-80
2021/11/10 06:32:34;;;;;;;4.50;2.53;;;;;;;11.83;64.78;101959.31;4981988;28;20053;-78
2021/11/10 06:35:18;;;;;;;;;;;;;;;11.83;66.94;101959.31;4971936;28;20093;-81
2021/11/10 06:38:03;;;;;;;6.20;2.67;;;;;;;11.86;68.64;101960.63;4977907;28;19918;-81
2021/11/10 06:40:48;;;;;;;12.13;3.22;;;;;;;11.88;69.47;101961.16;4958410;28;20058;-79
2021/11/10 06:43:35;;;;;;;3.58;1.95;;;;;;;11.88;69.78;101952.97;4969249;28;20039;-81
2021/11/10 06:46:20;;;;;;;5.78;2.20;;;;;;;11.89;71.43;101957.28;4962967;28;20165;-80
2021/11/10 06:49:05;;;;;;;4.80;2.13;;;;;;;11.90;72.41;101958.94;4985676;28;20074;-79
2021/11/10 06:51:50;;;;;;;3.88;2.35;;;;;;;11.87;71.79;101954.88;4982708;28;20061;-80
2021/11/10 06:54:35;;;;;;;4.57;1.85;;;;;;;11.87;71.95;101960.34;4968531;28;20046;-80
2021/11/10 06:57:21;;;;;;;6.85;2.40;;;;;;;11.88;72.33;101955.69;4971481;28;20524;-80
2021/11/10 07:00:11;;;;;;;7.80;3.33;;;;;;;11.89;72.41;101957.28;4969201;28;20057;-80
2021/11/10 07:02:57;;;;;;;13.70;4.35;;;;;;;11.84;70.76;101952.72;4967719;28;20409;-79
2021/11/10 07:05:42;;;;;;;6.80;3.90;;;;;;;11.86;71.35;101963.34;4964275;28;20058;-78
2021/11/10 07:08:26;;;;;;;6.43;3.15;;;;;;;11.86;72.85;101952.44;4972547;28;20054;-81
2021/11/10 07:11:11;;;;;;;;;;;;;;;11.88;74.49;101969.31;4976176;28;20046;-82
2021/11/10 07:13:56;;;;;;;13.17;6.73;;;;;;;11.80;71.83;101962.59;4967004;28;19914;-82
2021/11/10 07:16:42;;;;;;;10.50;3.50;;;;;;;11.81;69.91;101961.50;4961845;28;20045;-84
2021/11/10 07:19:26;;;;;;;5.03;2.42;;;;;;;11.83;71.47;101966.66;4961989;28;20073;-82
2021/11/10 07:22:12;;;;;;;7.95;3.03;;;;;;;11.82;72.54;101968.59;4958523;28;20057;-81
2021/11/10 07:24:56;;;;;;;11.57;3.15;;;;;;;11.81;72.82;101969.69;4969481;28;20046;-79
2021/11/10 07:27:41;;;;;;;;;;;;;;;11.77;67.29;101976.00;4959769;28;20051;-81
2021/11/10 07:30:26;;;;;;;12.10;3.90;;;;;;;11.69;65.49;101979.34;4968598;28;20344;-82
2021/11/10 07:33:11;;;;;;;;;;;;;;;11.69;64.72;101982.88;4967554;28;20046;-81
2021/11/10 07:35:56;;;;;;;10.23;3.97;;;;;;;11.67;65.00;101982.38;4965872;28;19914;-82
2021/11/10 07:38:41;;;;;;;5.28;2.70;;;;;;;11.64;64.55;101982.13;4960965;28;20051;-80
2021/11/10 07:41:34;;;;;;;10.30;3.35;;;;;;;11.62;64.62;101974.25;4964884;28;20057;-82
2021/11/10 07:44:18;;;;;;;15.68;4.03;;;;;;;11.63;64.91;101981.31;4969227;28;20048;-84
2021/11/10 07:47:17;;;;;;;;;;;;;;;11.67;69.81;101987.81;4964016;28;20045;-81
2021/11/10 07:50:02;;;;;;;4.60;2.85;;;;;;;11.66;70.55;101980.75;4966656;28;20304;-81
2021/11/10 07:52:49;;;;;;;4.55;1.67;;;;;;;11.70;71.36;101981.78;4960485;28;20546;-80
2021/11/10 07:55:34;;;;;;;6.18;2.72;;;;;;;11.69;71.22;101968.44;4969841;28;20057;-80
2021/11/10 07:58:18;;;;;;;3.63;2.03;;;;;;;11.73;73.49;101972.25;4964971;28;20050;-80
2021/11/10 08:01:04;;;;;;;7.50;1.65;;;;;;;11.76;74.69;101994.28;4977771;28;20050;-80
2021/11/10 08:03:50;;;;;;;7.10;2.88;;;;;;;11.77;75.45;101995.91;4961225;28;20054;-81
2021/11/10 08:06:35;;;;;;;6.43;2.03;;;;;;;11.79;76.50;102001.03;4964546;28;20535;-81
2021/11/10 08:09:20;;;;;;;2.88;1.60;;;;;;;11.81;77.12;102012.47;4962716;28;20131;-81
2021/11/10 08:12:06;;;;;;;8.73;2.22;;;;;;;11.84;77.50;102012.69;4961125;28;20052;-80
2021/11/10 08:14:50;;;;;;;5.03;2.88;;;;;;;11.84;77.73;102014.59;4979335;28;20050;-81
2021/11/10 08:17:36;;;;;;;3.25;2.03;;;;;;;11.87;78.07;102011.31;4962652;28;20049;-81
2021/11/10 08:20:21;;;;;;;4.80;1.90;;;;;;;11.89;78.20;102009.09;4961134;28;20053;-81
2021/11/10 08:23:05;;;;;;;1.77;1.27;;;;;;;11.91;78.19;102001.44;4964364;28;20234;-81
2021/11/10 08:25:51;;;;;;;;;;;;;;;11.94;78.52;102011.75;4963458;28;20050;-80
2021/11/10 08:28:36;;;;;;;3.40;1.52;;;;;;;11.92;78.41;101995.69;4976016;28;19918;-81
2021/11/10 08:31:21;;;;;;;3.10;1.20;;;;;;;11.94;78.40;102004.38;4963225;28;20050;-81
2021/11/10 08:34:06;;;;;;;3.83;1.58;;;;;;;11.96;78.64;102013.09;4962928;28;20062;-81
2021/11/10 08:36:51;;;;;;;7.25;1.77;;;;;;;11.99;78.66;102019.84;4961409;28;20053;-81
2021/11/10 08:39:36;;;;;;;3.78;1.60;;;;;;;12.00;78.38;102014.13;4964944;28;20279;-82
2021/11/10 08:42:20;;;;;;;5.10;1.63;;;;;;;12.00;78.16;102018.75;4958082;28;20092;-82
2021/11/10 08:45:09;;;;;;;4.95;1.80;;;;;;;12.03;78.29;102034.56;4962430;28;20050;-84
2021/11/10 08:47:57;;;;;;;5.95;1.83;;;;;;;12.05;78.65;102031.50;4975122;28;20066;-79
2021/11/10 08:50:44;;;;;;;5.28;1.98;;;;;;;12.04;78.20;102041.59;4961921;28;20516;-81
2021/11/10 08:53:28;;;;;;;3.85;2.67;;;;;;;12.05;78.35;102031.50;4975416;28;20058;-81
2021/11/10 08:56:14;;;;;;;7.38;2.58;;;;;;;12.08;78.42;102033.66;4978917;28;20250;-80
2021/11/10 08:59:00;;;;;;;2.38;1.58;;;;;;;12.11;78.07;102041.25;4962913;28;20421;-82
2021/11/10 09:01:52;;;;;;;8.45;2.63;;;;;;;12.11;78.18;102047.53;4975014;28;20516;-84
2021/11/10 09:04:37;;;;;;;4.97;2.20;;;;;;;12.17;78.07;102045.53;4979492;28;20080;-84
2021/11/10 09:07:21;;;;;;;5.20;1.88;;;;;;;12.17;78.34;102031.91;4977327;28;20524;-83
2021/11/10 09:10:10;;;;;;;4.47;1.67;;;;;;;12.21;78.31;102020.13;4974381;28;20050;-84
2021/11/10 09:12:55;;;;;;;4.85;1.98;;;;;;;12.22;78.50;102021.75;4977779;28;20045;-83
2021/11/10 09:15:40;;;;;;;5.00;1.60;;;;;;;12.23;78.48;102017.09;4974466;28;20079;-83
2021/11/10 09:18:25;;;;;;;;;;;;;;;12.26;78.82;102027.41;4972758;28;20053;-83
2021/11/10 09:21:10;;;;;;;3.90;2.13;;;;;;;12.24;78.84;102029.63;4975074;28;19918;-84
2021/11/10 09:23:54;;;;;;;2.63;1.50;;;;;;;12.26;78.77;102025.50;4968317;28;20045;-84
2021/11/10 09:26:39;;;;;;;4.05;1.95;;;;;;;12.28;79.01;102023.28;4974791;28;20046;-84
2021/11/10 09:29:24;;;;;;;6.00;1.42;;;;;;;12.29;78.94;102021.38;4964357;28;20046;-83
2021/11/10 09:32:09;;;;;;;;;;;;;;;12.32;79.06;102026.25;4954931;28;20425;-84
2021/11/10 09:34:54;;;;;;;3.07;1.60;;;;;;;12.32;79.04;102029.78;4979876;28;20312;-82
2021/11/10 09:37:41;;;;;;;3.17;1.30;;;;;;;12.33;79.13;102020.50;4957535;28;20062;-81
2021/11/10 09:40:30;;;;;;;5.18;2.10;;;;;;;12.35;79.08;102018.25;4975768;28;20430;-81
2021/11/10 09:43:16;;;;;;;4.38;2.38;;;;;;;12.35;78.93;102015.53;4968102;28;20046;-84
2021/11/10 09:46:02;;;;;;;4.40;2.20;;;;;;;12.36;78.92;102013.63;4951447;28;20088;-81
2021/11/10 09:48:47;;;;;;;3.20;2.00;;;;;;;12.35;78.42;102006.53;4983604;28;20050;-81
2021/11/10 09:51:31;;;;;;;2.45;1.38;;;;;;;12.34;77.74;101988.56;4957028;28;20050;-81
2021/11/10 09:54:17;;;;;;;3.50;2.78;;;;;;;12.36;78.04;101983.63;4962297;28;20074;-82
2021/11/10 09:57:01;;;;;;;3.10;1.52;;;;;;;12.36;77.20;101983.63;4966873;28;20051;-82
2021/11/10 09:59:48;;;;;;;5.95;2.42;;;;;;;12.36;77.26;101976.25;4964528;28;20057;-80
2021/11/10 10:02:33;;;;;;;5.82;2.58;;;;;;;12.39;75.65;101969.41;4958211;28;20050;-80
2021/11/10 10:05:20;;;;;;;3.05;1.95;;;;;;;12.40;75.38;101971.00;4962629;28;20053;-81
2021/11/10 10:08:09;;;;;;;4.40;2.60;;;;;;;12.42;76.48;101955.97;4979180;28;20050;-81
2021/11/10 10:10:54;;;;;;;4.35;2.45;;;;;;;12.43;77.01;101956.78;4960799;28;20054;-83
2021/11/10 10:13:39;;;;;;;;;;;;;;;12.47;76.75;101952.34;4966346;28;20054;-82
2021/11/10 10:16:26;;;;;;;3.17;2.28;;;;;;;12.49;75.98;101941.97;4961938;28;19914;-82
2021/11/10 10:19:13;;;;;;;3.80;2.33;;;;;;;12.53;76.04;101944.91;4960471;28;20055;-81
2021/11/10 10:22:00;;;;;;;4.43;1.80;;;;;;;12.55;77.01;101929.84;4960034;28;20059;-81
2021/11/10 10:24:45;;;;;;;4.22;2.72;;;;;;;12.56;76.53;101936.91;4961378;28;20054;-82
2021/11/10 10:27:33;;;;;;;5.55;2.45;;;;;;;12.59;76.67;101935.53;4966266;28;20513;-81
2021/11/10 10:31:07;;;;;;;4.93;2.80;;;;;;;12.64;76.21;101929.97;4964005;28;20042;-81
2021/11/10 10:33:59;;;;;;;4.60;1.67;;;;;;;12.68;76.59;101926.34;4959355;28;20418;-82
2021/11/10 10:36:46;;;;;;;6.28;1.92;;;;;;;12.71;76.69;101931.19;4976327;28;20046;-81
2021/11/10 10:39:30;;;;;;;3.13;2.03;;;;;;;12.71;76.82;101928.47;4973869;28;20049;-82
2021/11/10 10:42:15;;;;;;;;;;;;;;;12.74;76.27;101924.34;4961445;28;20046;-82
2021/11/10 10:45:03;;;;;;;6.57;2.33;;;;;;;12.73;75.98;101926.25;4969532;28;19914;-83
2021/11/10 10:48:00;;;;;;;3.45;2.33;;;;;;;12.76;76.31;101917.47;4984987;28;20053;-80
2021/11/10 10:50:53;;;;;;;5.10;2.17;;;;;;;12.77;75.98;101918.28;4969363;28;20055;-80
2021/11/10 10:53:43;;;;;;;6.40;2.00;;;;;;;12.78;73.51;101914.44;4966708;28;20061;-78
2021/11/10 10:56:35;;;;;;;3.35;2.22;;;;;;;12.81;75.29;101917.38;4957798;28;20046;-82
2021/11/10 10:59:23;;;;;;;2.58;1.63;;;;;;;12.82;75.26;101915.47;4972832;28;20041;-82
2021/11/10 11:02:07;;;;;;;3.78;2.17;;;;;;;12.83;74.68;101917.09;4976985;28;20054;-82
2021/11/10 11:04:53;;;;;;;7.10;2.30;;;;;;;12.85;73.92;101920.31;4973218;28;20046;-82
2021/11/10 11:07:37;;;;;;;5.80;1.77;;;;;;;12.86;75.18;101916.47;4971416;28;20520;-82
2021/11/10 11:10:26;;;;;;;3.72;2.25;;;;;;;12.89;72.43;101920.53;4959338;28;20414;-83
2021/11/10 11:13:17;;;;;;;2.88;1.80;;;;;;;12.91;71.67;101926.47;4958419;28;20166;-81
2021/11/10 11:16:08;;;;;;;10.27;2.28;;;;;;;12.90;70.19;101930.34;4967127;28;20057;-81
2021/11/10 11:19:16;;;;;;;3.10;1.92;;;;;;;12.95;72.63;101924.78;4959817;28;20074;-82
2021/11/10 11:22:01;;;;;;;5.50;1.90;;;;;;;12.91;73.59;101912.84;4954760;28;20050;-82
2021/11/10 11:24:47;;;;;;;3.55;1.23;;;;;;;12.95;74.21;101916.59;4962185;28;20413;-84
2021/11/10 11:27:32;;;;;;;6.10;2.00;;;;;;;12.97;72.48;101906.16;4958835;28;20248;-83
2021/11/10 11:30:17;;;;;;;;;;;;;;;13.01;72.98;101899.00;4967737;28;20053;-83
2021/11/10 11:33:07;;;;;;;4.55;2.53;;;;;;;13.03;72.50;101891.31;4980737;28;19914;-83
2021/11/10 11:35:55;;;;;;;4.15;2.55;;;;;;;13.06;71.66;101885.25;4972370;28;20045;-85
2021/11/10 11:38:41;;;;;;;9.10;2.10;;;;;;;13.07;73.95;101887.66;4963085;28;20062;-83
2021/11/10 11:41:26;;;;;;;5.80;2.75;;;;;;;13.07;73.75;101878.66;4956182;28;20050;-83
2021/11/10 11:44:11;;;;;;;5.15;1.92;;;;;;;13.14;74.37;101873.66;4963027;28;20048;-84
2021/11/10 11:46:56;;;;;;;;;;;;;;;13.19;70.56;101876.28;4973459;28;20054;-86
2021/11/10 11:49:41;;;;;;;5.75;2.38;;;;;;;13.19;70.80;101866.16;4981981;28;19913;-83
2021/11/10 11:52:29;;;;;;;2.80;1.73;;;;;;;13.22;72.73;101871.00;4966474;28;20053;-85
2021/11/10 11:55:21;;;;;;;2.65;1.50;;;;;;;13.32;74.35;101863.72;4979249;28;20049;-84
2021/11/10 11:58:14;;;;;;;4.45;2.25;;;;;;;13.33;72.58;101851.69;4976379;28;20057;-83
2021/11/10 12:01:03;;;;;;;3.67;2.55;;;;;;;13.33;72.51;101849.75;4986641;28;20054;-82
2021/11/10 12:04:07;;;;;;;2.80;1.88;;;;;;;13.38;73.40;101846.91;4973778;28;20058;-84
2021/11/10 12:06:56;;;;;;;2.58;2.00;;;;;;;13.42;73.92;101847.09;4959551;28;20569;-84
2021/11/10 12:09:41;;;;;;;3.78;1.70;;;;;;;13.42;74.38;101844.38;4991705;23;20694;-82
2021/11/10 12:12:27;;;;;;;;;;;;;;;13.49;74.97;101842.84;4983475;28;20058;-81
2021/11/10 12:15:14;;;;;;;4.07;1.73;;;;;;;13.52;75.24;101839.50;4984187;28;19918;-81
2021/11/10 12:18:09;;;;;;;3.40;1.83;;;;;;;13.55;74.96;101836.16;4991781;28;20045;-81
2021/11/10 12:21:01;;;;;;;2.33;1.45;;;;;;;13.56;74.39;101828.78;4986574;28;20050;-80
2021/11/10 12:23:52;;;;;;;5.80;2.05;;;;;;;13.58;73.78;101824.59;4989302;28;20115;-81
2021/11/10 12:27:16;;;;;;;4.05;1.75;;;;;;;13.62;74.23;101816.59;4992531;28;20054;-81
2021/11/10 12:30:13;;;;;;;6.57;2.10;;;;;;;13.65;74.42;101819.53;4984893;28;20050;-81
2021/11/10 12:33:05;;;;;;;6.00;2.95;;;;;;;14.48;57.44;101811.72;4971812;28;20042;-79
2021/11/10 12:35:52;;;;;;;6.10;2.78;;;;;;;15.16;51.13;101816.66;4970125;28;20046;-79
2021/11/10 12:38:37;;;;;;;5.07;2.88;;;;;;;15.47;48.71;101823.97;4976845;28;20113;-79
2021/11/10 12:41:25;;;;;;;5.45;2.80;;;;;;;15.58;47.42;101817.09;4974615;28;20054;-79
2021/11/10 12:44:30;;;;;;;4.55;2.55;;;;;;;15.56;47.03;101803.69;4975309;28;20054;-79
2021/11/10 12:47:40;;;;;;;3.35;2.13;;;;;;;15.48;49.88;101801.72;4977425;28;20041;-79
2021/11/10 12:50:28;;;;;;;13.68;2.70;;;;;;;15.43;47.84;101793.66;4979918;28;20069;-79
2021/11/10 12:53:16;;;;;;;5.97;3.20;;;;;;;15.20;52.25;101787.50;4974607;28;20066;-78
2021/11/10 12:56:03;;;;;;;5.97;2.47;;;;;;;15.19;54.74;101768.63;4972397;28;20062;-78
2021/11/10 12:59:00;;;;;;;9.38;3.20;;;;;;;15.20;52.47;101757.34;4964780;28;20533;-79
2021/11/10 13:01:45;;;;;;;8.88;3.03;;;;;;;15.23;52.98;101748.50;4970065;28;20050;-79
2021/11/10 13:04:31;;;;;;;;;;;;;;;15.25;52.20;101743.50;4975347;28;20118;-78